sensor_id;sensor_type;location;lat;lon;timestamp;pressure;altitude;pressure_sealevel;temperature;humidity
10946;BME280;5525;42.648;23.368;2022-10-26T00:01:38;95118.59;;;15.75;95.45
10946;BME280;5525;42.648;23.368;2022-10-26T00:04:07;95110.66;;;15.70;95.53
10946;BME280;5525;42.648;23.368;2022-10-26T00:06:34;95108.03;;;15.74;95.34
10946;BME280;5525;42.648;23.368;2022-10-26T00:09:02;95112.94;;;15.68;96.00
10946;BME280;5525;42.648;23.368;2022-10-26T00:11:31;95109.44;;;15.68;96.40
10946;BME280;5525;42.648;23.368;2022-10-26T00:14:01;95106.06;;;15.59;97.22
10946;BME280;5525;42.648;23.368;2022-10-26T00:16:34;95106.63;;;15.52;97.56
10946;BME280;5525;42.648;23.368;2022-10-26T00:19:01;95113.91;;;15.48;97.79
10946;BME280;5525;42.648;23.368;2022-10-26T00:21:28;95109.84;;;15.42;98.15
10946;BME280;5525;42.648;23.368;2022-10-26T00:23:59;95072.09;;;15.16;98.38
10946;BME280;5525;42.648;23.368;2022-10-26T00:26:26;95116.50;;;15.33;99.29
10946;BME280;5525;42.648;23.368;2022-10-26T00:28:55;95100.88;;;15.17;99.18
10946;BME280;5525;42.648;23.368;2022-10-26T00:31:23;95114.91;;;15.32;99.11
10946;BME280;5525;42.648;23.368;2022-10-26T00:33:51;95112.31;;;15.35;98.68
10946;BME280;5525;42.648;23.368;2022-10-26T00:36:22;95125.78;;;15.32;98.57
10946;BME280;5525;42.648;23.368;2022-10-26T00:38:52;95116.38;;;15.29;98.84
10946;BME280;5525;42.648;23.368;2022-10-26T00:41:23;95107.44;;;15.28;98.81
10946;BME280;5525;42.648;23.368;2022-10-26T00:43:52;95107.69;;;15.23;99.12
10946;BME280;5525;42.648;23.368;2022-10-26T00:46:23;95098.38;;;15.24;98.23
10946;BME280;5525;42.648;23.368;2022-10-26T00:48:54;95111.28;;;15.27;98.34
10946;BME280;5525;42.648;23.368;2022-10-26T00:51:25;95080.81;;;15.22;97.77
10946;BME280;5525;42.648;23.368;2022-10-26T00:53:54;95110.72;;;15.34;97.72
10946;BME280;5525;42.648;23.368;2022-10-26T00:56:25;95106.41;;;15.21;98.93
10946;BME280;5525;42.648;23.368;2022-10-26T00:58:54;95100.06;;;15.29;98.28
10946;BME280;5525;42.648;23.368;2022-10-26T01:01:24;95098.22;;;15.33;97.79
10946;BME280;5525;42.648;23.368;2022-10-26T01:03:51;95054.31;;;14.95;98.40
10946;BME280;5525;42.648;23.368;2022-10-26T01:06:20;95092.47;;;15.22;98.40
10946;BME280;5525;42.648;23.368;2022-10-26T01:08:48;95091.78;;;15.25;97.86
10946;BME280;5525;42.648;23.368;2022-10-26T01:11:15;95095.53;;;15.21;98.65
10946;BME280;5525;42.648;23.368;2022-10-26T01:13:45;95095.66;;;15.24;98.79
10946;BME280;5525;42.648;23.368;2022-10-26T01:16:27;95078.56;;;15.00;99.74
10946;BME280;5525;42.648;23.368;2022-10-26T01:19:07;95062.13;;;14.96;100.00
10946;BME280;5525;42.648;23.368;2022-10-26T01:21:51;95094.66;;;15.17;100.00
10946;BME280;5525;42.648;23.368;2022-10-26T01:27:28;95089.78;;;15.10;100.00
10946;BME280;5525;42.648;23.368;2022-10-26T01:30:18;95086.25;;;15.10;100.00
10946;BME280;5525;42.648;23.368;2022-10-26T01:33:25;95095.09;;;15.07;100.00
10946;BME280;5525;42.648;23.368;2022-10-26T01:36:04;95051.50;;;14.67;100.00
10946;BME280;5525;42.648;23.368;2022-10-26T01:38:41;95097.13;;;14.98;100.00
10946;BME280;5525;42.648;23.368;2022-10-26T01:41:20;95079.13;;;14.93;100.00
10946;BME280;5525;42.648;23.368;2022-10-26T01:44:00;95075.72;;;14.96;100.00
10946;BME280;5525;42.648;23.368;2022-10-26T01:46:35;95081.50;;;14.95;100.00
10946;BME280;5525;42.648;23.368;2022-10-26T01:49:10;95086.47;;;14.93;100.00
10946;BME280;5525;42.648;23.368;2022-10-26T01:51:40;95045.94;;;14.64;100.00
10946;BME280;5525;42.648;23.368;2022-10-26T01:54:10;95086.97;;;14.83;100.00
10946;BME280;5525;42.648;23.368;2022-10-26T01:56:39;95090.56;;;14.75;100.00
10946;BME280;5525;42.648;23.368;2022-10-26T01:59:21;95083.91;;;14.72;100.00
10946;BME280;5525;42.648;23.368;2022-10-26T02:02:31;95086.63;;;14.72;100.00
10946;BME280;5525;42.648;23.368;2022-10-26T02:05:29;95094.19;;;14.55;100.00
10946;BME280;5525;42.648;23.368;2022-10-26T02:08:06;95084.78;;;14.52;100.00
10946;BME280;5525;42.648;23.368;2022-10-26T02:10:45;95078.31;;;14.45;100.00
10946;BME280;5525;42.648;23.368;2022-10-26T02:13:18;95088.88;;;14.58;100.00
10946;BME280;5525;42.648;23.368;2022-10-26T02:15:57;95087.03;;;14.50;100.00
10946;BME280;5525;42.648;23.368;2022-10-26T02:18:39;95101.56;;;14.54;100.00
10946;BME280;5525;42.648;23.368;2022-10-26T02:21:11;95096.22;;;14.46;100.00
10946;BME280;5525;42.648;23.368;2022-10-26T02:23:42;95050.97;;;14.17;100.00
10946;BME280;5525;42.648;23.368;2022-10-26T02:26:18;95112.03;;;14.44;100.00
10946;BME280;5525;42.648;23.368;2022-10-26T02:28:54;95085.00;;;14.15;100.00
10946;BME280;5525;42.648;23.368;2022-10-26T02:31:24;95093.97;;;14.15;100.00
10946;BME280;5525;42.648;23.368;2022-10-26T02:33:54;95106.03;;;14.06;100.00
10946;BME280;5525;42.648;23.368;2022-10-26T02:36:25;95097.94;;;13.85;100.00
10946;BME280;5525;42.648;23.368;2022-10-26T02:38:56;95108.34;;;13.63;100.00
10946;BME280;5525;42.648;23.368;2022-10-26T02:41:27;95101.41;;;13.32;100.00
10946;BME280;5525;42.648;23.368;2022-10-26T02:44:00;95072.75;;;12.94;100.00
10946;BME280;5525;42.648;23.368;2022-10-26T02:46:31;95110.03;;;13.05;100.00
10946;BME280;5525;42.648;23.368;2022-10-26T02:48:59;95111.63;;;12.98;100.00
10946;BME280;5525;42.648;23.368;2022-10-26T02:51:30;95088.78;;;12.78;100.00
10946;BME280;5525;42.648;23.368;2022-10-26T02:54:06;95104.78;;;12.71;100.00
10946;BME280;5525;42.648;23.368;2022-10-26T02:56:42;95128.63;;;12.78;100.00
10946;BME280;5525;42.648;23.368;2022-10-26T02:59:14;95119.28;;;12.67;100.00
10946;BME280;5525;42.648;23.368;2022-10-26T03:01:43;95132.53;;;12.60;100.00
10946;BME280;5525;42.648;23.368;2022-10-26T03:04:12;95139.44;;;12.49;100.00
10946;BME280;5525;42.648;23.368;2022-10-26T03:06:50;95135.63;;;12.50;100.00
10946;BME280;5525;42.648;23.368;2022-10-26T03:09:18;95084.44;;;12.19;100.00
10946;BME280;5525;42.648;23.368;2022-10-26T03:11:48;95139.44;;;12.49;100.00
10946;BME280;5525;42.648;23.368;2022-10-26T03:14:18;95147.59;;;12.40;100.00
10946;BME280;5525;42.648;23.368;2022-10-26T03:16:48;95146.63;;;12.36;100.00
10946;BME280;5525;42.648;23.368;2022-10-26T03:19:17;95142.34;;;12.35;100.00
10946;BME280;5525;42.648;23.368;2022-10-26T03:21:47;95142.50;;;12.30;100.00
10946;BME280;5525;42.648;23.368;2022-10-26T03:24:17;95161.94;;;12.41;100.00
10946;BME280;5525;42.648;23.368;2022-10-26T03:26:44;95152.34;;;12.43;100.00
10946;BME280;5525;42.648;23.368;2022-10-26T03:29:12;95078.00;;;11.77;100.00
10946;BME280;5525;42.648;23.368;2022-10-26T03:31:39;95148.25;;;12.29;100.00
10946;BME280;5525;42.648;23.368;2022-10-26T03:34:06;95150.66;;;12.22;100.00
10946;BME280;5525;42.648;23.368;2022-10-26T03:36:35;95136.34;;;12.04;100.00
10946;BME280;5525;42.648;23.368;2022-10-26T03:39:03;95148.91;;;12.17;100.00
10946;BME280;5525;42.648;23.368;2022-10-26T03:41:30;95169.16;;;12.11;100.00
10946;BME280;5525;42.648;23.368;2022-10-26T03:43:58;95158.03;;;11.96;100.00
10946;BME280;5525;42.648;23.368;2022-10-26T03:46:27;95168.69;;;12.09;100.00
10946;BME280;5525;42.648;23.368;2022-10-26T03:48:55;95169.13;;;12.20;100.00
10946;BME280;5525;42.648;23.368;2022-10-26T03:51:22;95169.16;;;12.03;100.00
10946;BME280;5525;42.648;23.368;2022-10-26T03:53:50;95167.88;;;12.09;100.00
10946;BME280;5525;42.648;23.368;2022-10-26T03:56:18;95160.09;;;11.90;100.00
10946;BME280;5525;42.648;23.368;2022-10-26T03:58:47;95158.69;;;11.75;100.00
10946;BME280;5525;42.648;23.368;2022-10-26T04:01:14;95161.06;;;11.68;100.00
10946;BME280;5525;42.648;23.368;2022-10-26T04:03:42;95169.03;;;11.65;100.00
10946;BME280;5525;42.648;23.368;2022-10-26T04:06:12;95153.88;;;11.64;100.00
10946;BME280;5525;42.648;23.368;2022-10-26T04:08:39;95163.13;;;11.80;100.00
10946;BME280;5525;42.648;23.368;2022-10-26T04:11:08;95161.22;;;11.89;100.00
10946;BME280;5525;42.648;23.368;2022-10-26T04:13:36;95156.44;;;11.69;100.00
10946;BME280;5525;42.648;23.368;2022-10-26T04:16:04;95170.91;;;11.90;100.00
10946;BME280;5525;42.648;23.368;2022-10-26T04:18:31;95168.19;;;11.90;100.00
10946;BME280;5525;42.648;23.368;2022-10-26T04:21:00;95137.50;;;11.86;100.00
10946;BME280;5525;42.648;23.368;2022-10-26T04:23:27;95124.94;;;11.81;100.00
10946;BME280;5525;42.648;23.368;2022-10-26T04:25:54;95168.34;;;12.11;100.00
10946;BME280;5525;42.648;23.368;2022-10-26T04:28:22;95100.28;;;11.66;100.00
10946;BME280;5525;42.648;23.368;2022-10-26T04:30:49;95177.91;;;12.08;100.00
10946;BME280;5525;42.648;23.368;2022-10-26T04:33:17;95183.16;;;12.13;100.00
10946;BME280;5525;42.648;23.368;2022-10-26T04:35:44;95167.38;;;12.15;100.00
10946;BME280;5525;42.648;23.368;2022-10-26T04:38:15;95126.50;;;11.91;100.00
10946;BME280;5525;42.648;23.368;2022-10-26T04:40:42;95120.94;;;11.96;100.00
10946;BME280;5525;42.648;23.368;2022-10-26T04:43:09;95162.94;;;12.11;100.00
10946;BME280;5525;42.648;23.368;2022-10-26T04:45:38;95173.59;;;12.16;100.00
10946;BME280;5525;42.648;23.368;2022-10-26T04:48:06;95174.53;;;12.20;100.00
10946;BME280;5525;42.648;23.368;2022-10-26T04:50:35;95176.94;;;12.21;100.00
10946;BME280;5525;42.648;23.368;2022-10-26T04:53:03;95180.13;;;12.23;100.00
10946;BME280;5525;42.648;23.368;2022-10-26T04:55:31;95186.97;;;12.21;100.00
10946;BME280;5525;42.648;23.368;2022-10-26T04:57:58;95160.56;;;11.92;100.00
10946;BME280;5525;42.648;23.368;2022-10-26T05:00:25;95171.53;;;12.04;100.00
10946;BME280;5525;42.648;23.368;2022-10-26T05:02:59;95161.50;;;12.05;100.00
10946;BME280;5525;42.648;23.368;2022-10-26T05:05:27;95195.41;;;12.28;100.00
10946;BME280;5525;42.648;23.368;2022-10-26T05:07:54;95173.44;;;12.12;100.00
10946;BME280;5525;42.648;23.368;2022-10-26T05:10:22;95192.81;;;12.40;100.00
10946;BME280;5525;42.648;23.368;2022-10-26T05:12:52;95194.44;;;12.32;100.00
10946;BME280;5525;42.648;23.368;2022-10-26T05:15:19;95197.16;;;12.41;100.00
10946;BME280;5525;42.648;23.368;2022-10-26T05:17:46;95182.31;;;12.38;100.00
10946;BME280;5525;42.648;23.368;2022-10-26T05:20:15;95183.41;;;12.46;100.00
10946;BME280;5525;42.648;23.368;2022-10-26T05:22:42;95194.84;;;12.60;100.00
10946;BME280;5525;42.648;23.368;2022-10-26T05:25:09;95203.78;;;12.60;100.00
10946;BME280;5525;42.648;23.368;2022-10-26T05:27:36;95201.56;;;12.62;100.00
10946;BME280;5525;42.648;23.368;2022-10-26T05:30:04;95204.69;;;12.73;100.00
10946;BME280;5525;42.648;23.368;2022-10-26T05:32:32;95203.25;;;12.75;100.00
10946;BME280;5525;42.648;23.368;2022-10-26T05:34:59;95206.72;;;12.84;100.00
10946;BME280;5525;42.648;23.368;2022-10-26T05:37:28;95212.56;;;12.95;100.00
10946;BME280;5525;42.648;23.368;2022-10-26T05:39:55;95159.31;;;12.61;100.00
10946;BME280;5525;42.648;23.368;2022-10-26T05:42:22;95195.72;;;12.81;100.00
10946;BME280;5525;42.648;23.368;2022-10-26T05:44:50;95225.03;;;12.96;100.00
10946;BME280;5525;42.648;23.368;2022-10-26T05:47:20;95234.88;;;13.09;100.00
10946;BME280;5525;42.648;23.368;2022-10-26T05:49:47;95220.56;;;13.08;100.00
10946;BME280;5525;42.648;23.368;2022-10-26T05:52:14;95196.97;;;12.92;100.00
10946;BME280;5525;42.648;23.368;2022-10-26T05:54:43;95239.53;;;13.08;100.00
10946;BME280;5525;42.648;23.368;2022-10-26T05:57:11;95241.41;;;12.99;100.00
10946;BME280;5525;42.648;23.368;2022-10-26T05:59:38;95248.28;;;13.05;100.00
10946;BME280;5525;42.648;23.368;2022-10-26T06:02:11;95238.81;;;13.20;100.00
10946;BME280;5525;42.648;23.368;2022-10-26T06:04:42;95234.19;;;13.20;100.00
10946;BME280;5525;42.648;23.368;2022-10-26T06:07:14;95247.53;;;13.34;100.00
10946;BME280;5525;42.648;23.368;2022-10-26T06:09:47;95251.81;;;13.35;100.00
10946;BME280;5525;42.648;23.368;2022-10-26T06:12:15;95252.53;;;13.52;100.00
10946;BME280;5525;42.648;23.368;2022-10-26T06:14:44;95256.34;;;13.60;100.00
10946;BME280;5525;42.648;23.368;2022-10-26T06:17:22;95252.13;;;13.71;100.00
10946;BME280;5525;42.648;23.368;2022-10-26T06:20:04;95232.75;;;13.52;100.00
10946;BME280;5525;42.648;23.368;2022-10-26T06:22:45;95255.56;;;13.80;100.00
10946;BME280;5525;42.648;23.368;2022-10-26T06:25:25;95255.16;;;13.90;100.00
10946;BME280;5525;42.648;23.368;2022-10-26T06:28:04;95261.47;;;14.03;100.00
10946;BME280;5525;42.648;23.368;2022-10-26T06:30:34;95245.00;;;14.08;100.00
10946;BME280;5525;42.648;23.368;2022-10-26T06:33:01;95259.44;;;14.20;100.00
10946;BME280;5525;42.648;23.368;2022-10-26T06:35:35;95257.31;;;14.26;100.00
10946;BME280;5525;42.648;23.368;2022-10-26T06:38:08;95209.50;;;14.13;100.00
10946;BME280;5525;42.648;23.368;2022-10-26T06:40:41;95265.81;;;14.45;100.00
10946;BME280;5525;42.648;23.368;2022-10-26T06:43:18;95268.19;;;14.46;100.00
10946;BME280;5525;42.648;23.368;2022-10-26T06:45:50;95236.31;;;14.35;100.00
10946;BME280;5525;42.648;23.368;2022-10-26T06:48:24;95238.69;;;14.57;100.00
10946;BME280;5525;42.648;23.368;2022-10-26T06:50:54;95267.16;;;14.71;100.00
10946;BME280;5525;42.648;23.368;2022-10-26T06:53:26;95255.97;;;14.73;100.00
10946;BME280;5525;42.648;23.368;2022-10-26T06:55:58;95274.00;;;14.89;100.00
10946;BME280;5525;42.648;23.368;2022-10-26T06:58:28;95275.03;;;14.97;100.00
10946;BME280;5525;42.648;23.368;2022-10-26T07:01:02;95275.72;;;14.94;100.00
10946;BME280;5525;42.648;23.368;2022-10-26T07:03:33;95277.56;;;15.02;100.00
10946;BME280;5525;42.648;23.368;2022-10-26T07:06:03;95283.09;;;15.05;100.00
10946;BME280;5525;42.648;23.368;2022-10-26T07:08:36;95274.88;;;15.26;100.00
10946;BME280;5525;42.648;23.368;2022-10-26T07:11:08;95267.13;;;15.16;100.00
10946;BME280;5525;42.648;23.368;2022-10-26T07:13:41;95284.66;;;15.39;100.00
10946;BME280;5525;42.648;23.368;2022-10-26T07:16:08;95275.44;;;15.32;100.00
10946;BME280;5525;42.648;23.368;2022-10-26T07:18:35;95282.59;;;15.36;100.00
10946;BME280;5525;42.648;23.368;2022-10-26T07:21:03;95273.00;;;15.51;100.00
10946;BME280;5525;42.648;23.368;2022-10-26T07:23:30;95242.44;;;15.21;100.00
10946;BME280;5525;42.648;23.368;2022-10-26T07:25:58;95255.94;;;15.17;100.00
10946;BME280;5525;42.648;23.368;2022-10-26T07:28:29;95281.03;;;15.59;100.00
10946;BME280;5525;42.648;23.368;2022-10-26T07:31:01;95274.38;;;15.57;100.00
10946;BME280;5525;42.648;23.368;2022-10-26T07:33:35;95273.69;;;15.72;100.00
10946;BME280;5525;42.648;23.368;2022-10-26T07:36:09;95269.00;;;15.84;100.00
10946;BME280;5525;42.648;23.368;2022-10-26T07:38:39;95251.88;;;15.72;100.00
10946;BME280;5525;42.648;23.368;2022-10-26T07:41:09;95233.97;;;15.71;100.00
10946;BME280;5525;42.648;23.368;2022-10-26T07:43:40;95265.94;;;15.98;100.00
10946;BME280;5525;42.648;23.368;2022-10-26T07:46:09;95271.69;;;16.08;100.00
10946;BME280;5525;42.648;23.368;2022-10-26T07:48:37;95270.59;;;15.97;100.00
10946;BME280;5525;42.648;23.368;2022-10-26T07:51:04;95256.81;;;16.18;100.00
10946;BME280;5525;42.648;23.368;2022-10-26T07:53:33;95274.09;;;16.22;100.00
10946;BME280;5525;42.648;23.368;2022-10-26T07:56:01;95207.31;;;15.88;100.00
10946;BME280;5525;42.648;23.368;2022-10-26T07:58:28;95257.84;;;16.13;100.00
10946;BME280;5525;42.648;23.368;2022-10-26T08:01:04;95255.19;;;16.29;100.00
10946;BME280;5525;42.648;23.368;2022-10-26T08:03:33;95262.56;;;16.40;100.00
10946;BME280;5525;42.648;23.368;2022-10-26T08:06:00;95267.31;;;16.55;100.00
10946;BME280;5525;42.648;23.368;2022-10-26T08:08:29;95268.88;;;16.56;100.00
10946;BME280;5525;42.648;23.368;2022-10-26T08:10:57;95239.81;;;16.60;100.00
10946;BME280;5525;42.648;23.368;2022-10-26T08:13:24;95265.28;;;16.80;100.00
10946;BME280;5525;42.648;23.368;2022-10-26T08:15:55;95258.06;;;16.88;100.00
10946;BME280;5525;42.648;23.368;2022-10-26T08:18:24;95269.31;;;16.86;98.19
10946;BME280;5525;42.648;23.368;2022-10-26T08:20:51;95227.56;;;16.70;99.27
10946;BME280;5525;42.648;23.368;2022-10-26T08:23:19;95267.75;;;16.85;98.77
10946;BME280;5525;42.648;23.368;2022-10-26T08:25:46;95272.19;;;17.05;98.58
10946;BME280;5525;42.648;23.368;2022-10-26T08:28:13;95271.50;;;17.08;96.56
10946;BME280;5525;42.648;23.368;2022-10-26T08:30:40;95258.72;;;17.12;95.90
10946;BME280;5525;42.648;23.368;2022-10-26T08:33:07;95236.19;;;17.15;94.64
10946;BME280;5525;42.648;23.368;2022-10-26T08:35:37;95267.50;;;17.49;92.94
10946;BME280;5525;42.648;23.368;2022-10-26T08:38:05;95223.25;;;17.28;92.96
10946;BME280;5525;42.648;23.368;2022-10-26T08:40:33;95225.53;;;17.41;90.47
10946;BME280;5525;42.648;23.368;2022-10-26T08:43:06;95246.34;;;17.46;91.69
10946;BME280;5525;42.648;23.368;2022-10-26T08:45:40;95232.78;;;17.49;91.09
10946;BME280;5525;42.648;23.368;2022-10-26T08:48:14;95250.59;;;17.74;89.78
10946;BME280;5525;42.648;23.368;2022-10-26T08:50:47;95258.38;;;17.91;89.02
10946;BME280;5525;42.648;23.368;2022-10-26T08:53:19;95246.06;;;17.82;88.18
10946;BME280;5525;42.648;23.368;2022-10-26T08:55:51;95268.09;;;17.89;86.44
10946;BME280;5525;42.648;23.368;2022-10-26T08:58:21;95237.69;;;17.75;86.36
10946;BME280;5525;42.648;23.368;2022-10-26T09:00:51;95260.13;;;17.99;83.35
10946;BME280;5525;42.648;23.368;2022-10-26T09:03:18;95254.03;;;18.06;83.98
10946;BME280;5525;42.648;23.368;2022-10-26T09:05:56;95273.66;;;18.11;84.26
10946;BME280;5525;42.648;23.368;2022-10-26T09:08:32;95269.31;;;18.26;81.31
10946;BME280;5525;42.648;23.368;2022-10-26T09:11:07;95262.50;;;18.35;78.24
10946;BME280;5525;42.648;23.368;2022-10-26T09:13:43;95266.81;;;18.36;73.70
10946;BME280;5525;42.648;23.368;2022-10-26T09:16:22;95260.09;;;18.50;70.98
10946;BME280;5525;42.648;23.368;2022-10-26T09:18:59;95263.75;;;18.76;70.22
10946;BME280;5525;42.648;23.368;2022-10-26T09:21:39;95258.59;;;18.71;72.52
10946;BME280;5525;42.648;23.368;2022-10-26T09:24:13;95245.19;;;18.66;72.43
10946;BME280;5525;42.648;23.368;2022-10-26T09:26:51;95244.25;;;18.78;72.69
10946;BME280;5525;42.648;23.368;2022-10-26T09:29:20;95239.94;;;18.77;70.30
10946;BME280;5525;42.648;23.368;2022-10-26T09:31:49;95259.00;;;18.73;70.40
10946;BME280;5525;42.648;23.368;2022-10-26T09:34:25;95273.69;;;19.03;67.97
10946;BME280;5525;42.648;23.368;2022-10-26T09:36:55;95262.38;;;19.05;67.69
10946;BME280;5525;42.648;23.368;2022-10-26T09:39:32;95254.72;;;19.14;65.98
10946;BME280;5525;42.648;23.368;2022-10-26T09:42:11;95252.31;;;19.31;63.35
10946;BME280;5525;42.648;23.368;2022-10-26T09:44:44;95257.38;;;20.00;61.39
10946;BME280;5525;42.648;23.368;2022-10-26T09:47:20;95249.22;;;25.24;43.13
10946;BME280;5525;42.648;23.368;2022-10-26T09:49:52;95247.06;;;31.13;32.84
10946;BME280;5525;42.648;23.368;2022-10-26T09:52:22;95234.94;;;33.38;27.31
10946;BME280;5525;42.648;23.368;2022-10-26T09:54:49;95269.31;;;35.88;24.11
10946;BME280;5525;42.648;23.368;2022-10-26T09:57:18;95270.19;;;37.91;21.40
10946;BME280;5525;42.648;23.368;2022-10-26T09:59:46;95271.25;;;37.94;19.50
10946;BME280;5525;42.648;23.368;2022-10-26T10:02:33;95275.72;;;39.39;18.34
10946;BME280;5525;42.648;23.368;2022-10-26T10:05:01;95273.72;;;40.16;18.80
10946;BME280;5525;42.648;23.368;2022-10-26T10:07:29;95278.88;;;42.14;16.79
10946;BME280;5525;42.648;23.368;2022-10-26T10:10:07;95278.09;;;42.74;16.10
10946;BME280;5525;42.648;23.368;2022-10-26T10:12:34;95272.94;;;42.83;15.64
10946;BME280;5525;42.648;23.368;2022-10-26T10:15:01;95263.16;;;42.35;15.83
10946;BME280;5525;42.648;23.368;2022-10-26T10:17:29;95265.06;;;40.62;16.59
10946;BME280;5525;42.648;23.368;2022-10-26T10:20:06;95264.00;;;40.54;17.28
10946;BME280;5525;42.648;23.368;2022-10-26T10:22:52;95257.72;;;40.39;17.22
10946;BME280;5525;42.648;23.368;2022-10-26T10:25:32;95242.00;;;41.27;16.02
10946;BME280;5525;42.648;23.368;2022-10-26T10:27:59;95247.19;;;40.13;17.17
10946;BME280;5525;42.648;23.368;2022-10-26T10:30:29;95228.16;;;40.45;16.74
10946;BME280;5525;42.648;23.368;2022-10-26T10:33:04;95249.72;;;42.02;15.68
10946;BME280;5525;42.648;23.368;2022-10-26T10:35:31;95246.28;;;41.01;16.07
10946;BME280;5525;42.648;23.368;2022-10-26T10:38:00;95242.13;;;43.61;14.80
10946;BME280;5525;42.648;23.368;2022-10-26T10:40:28;95229.44;;;38.56;17.68
10946;BME280;5525;42.648;23.368;2022-10-26T10:43:10;95226.91;;;37.94;18.72
10946;BME280;5525;42.648;23.368;2022-10-26T10:45:40;95222.47;;;38.92;17.99
10946;BME280;5525;42.648;23.368;2022-10-26T10:48:14;95225.78;;;39.50;17.42
10946;BME280;5525;42.648;23.368;2022-10-26T10:50:51;95223.66;;;37.43;18.80
10946;BME280;5525;42.648;23.368;2022-10-26T10:53:24;95203.47;;;38.92;18.03
10946;BME280;5525;42.648;23.368;2022-10-26T10:56:08;95227.63;;;41.36;15.94
10946;BME280;5525;42.648;23.368;2022-10-26T10:58:47;95211.75;;;38.75;17.92
10946;BME280;5525;42.648;23.368;2022-10-26T11:01:21;95170.22;;;38.61;17.68
10946;BME280;5525;42.648;23.368;2022-10-26T11:04:03;95177.59;;;36.79;19.73
10946;BME280;5525;42.648;23.368;2022-10-26T11:06:36;95205.56;;;39.12;18.04
10946;BME280;5525;42.648;23.368;2022-10-26T11:09:10;95205.69;;;36.88;19.53
10946;BME280;5525;42.648;23.368;2022-10-26T11:11:40;95193.41;;;36.20;20.34
10946;BME280;5525;42.648;23.368;2022-10-26T11:14:13;95174.69;;;37.26;19.39
10946;BME280;5525;42.648;23.368;2022-10-26T11:16:45;95199.50;;;37.51;19.34
10946;BME280;5525;42.648;23.368;2022-10-26T11:19:18;95191.47;;;36.59;20.08
10946;BME280;5525;42.648;23.368;2022-10-26T11:21:48;95180.09;;;38.17;18.65
10946;BME280;5525;42.648;23.368;2022-10-26T11:24:22;95203.97;;;39.11;18.20
10946;BME280;5525;42.648;23.368;2022-10-26T11:26:53;95177.75;;;36.28;20.44
10946;BME280;5525;42.648;23.368;2022-10-26T11:29:30;95137.88;;;36.06;20.42
10946;BME280;5525;42.648;23.368;2022-10-26T11:32:01;95195.53;;;35.51;20.87
10946;BME280;5525;42.648;23.368;2022-10-26T11:34:36;95149.16;;;36.30;20.44
10946;BME280;5525;42.648;23.368;2022-10-26T11:37:10;95179.50;;;35.33;21.12
10946;BME280;5525;42.648;23.368;2022-10-26T11:39:44;95174.97;;;33.05;23.68
10946;BME280;5525;42.648;23.368;2022-10-26T11:42:22;95161.75;;;33.88;22.53
10946;BME280;5525;42.648;23.368;2022-10-26T11:44:54;95141.81;;;33.95;22.50
10946;BME280;5525;42.648;23.368;2022-10-26T11:47:27;95155.03;;;35.16;21.38
10946;BME280;5525;42.648;23.368;2022-10-26T11:50:03;95134.03;;;32.43;23.36
10946;BME280;5525;42.648;23.368;2022-10-26T11:52:37;95137.31;;;32.85;23.59
10946;BME280;5525;42.648;23.368;2022-10-26T11:55:09;95143.00;;;33.76;22.64
10946;BME280;5525;42.648;23.368;2022-10-26T11:57:37;95125.00;;;32.39;23.92
10946;BME280;5525;42.648;23.368;2022-10-26T12:00:06;95150.78;;;33.20;22.94
10946;BME280;5525;42.648;23.368;2022-10-26T12:02:37;95155.41;;;32.37;23.65
10946;BME280;5525;42.648;23.368;2022-10-26T12:05:15;95152.03;;;31.45;24.72
10946;BME280;5525;42.648;23.368;2022-10-26T12:07:47;95155.28;;;31.44;24.56
10946;BME280;5525;42.648;23.368;2022-10-26T12:10:25;95143.50;;;32.80;23.12
10946;BME280;5525;42.648;23.368;2022-10-26T12:12:58;95156.16;;;33.06;22.66
10946;BME280;5525;42.648;23.368;2022-10-26T12:15:31;95149.28;;;32.63;23.06
10946;BME280;5525;42.648;23.368;2022-10-26T12:18:05;95148.22;;;32.02;23.60
10946;BME280;5525;42.648;23.368;2022-10-26T12:20:57;95132.50;;;31.70;23.46
10946;BME280;5525;42.648;23.368;2022-10-26T12:23:28;95149.84;;;30.42;25.04
10946;BME280;5525;42.648;23.368;2022-10-26T12:29:27;95143.88;;;29.63;25.89
10946;BME280;5525;42.648;23.368;2022-10-26T12:31:54;95135.41;;;29.50;25.30
10946;BME280;5525;42.648;23.368;2022-10-26T12:34:40;95130.69;;;28.76;25.66
10946;BME280;5525;42.648;23.368;2022-10-26T12:37:22;95133.78;;;28.20;26.88
10946;BME280;5525;42.648;23.368;2022-10-26T12:39:50;95139.75;;;28.61;26.58
10946;BME280;5525;42.648;23.368;2022-10-26T12:42:28;95135.72;;;28.23;26.66
10946;BME280;5525;42.648;23.368;2022-10-26T12:45:18;95133.38;;;27.75;26.88
10946;BME280;5525;42.648;23.368;2022-10-26T12:48:03;95128.50;;;28.06;26.55
10946;BME280;5525;42.648;23.368;2022-10-26T12:50:30;95102.63;;;27.39;26.53
10946;BME280;5525;42.648;23.368;2022-10-26T12:52:57;95105.09;;;26.77;27.41
10946;BME280;5525;42.648;23.368;2022-10-26T12:55:55;95130.75;;;26.85;27.27
10946;BME280;5525;42.648;23.368;2022-10-26T13:04:59;95105.41;;;25.31;29.97
10946;BME280;5525;42.648;23.368;2022-10-26T13:07:33;95115.69;;;24.68;30.79
10946;BME280;5525;42.648;23.368;2022-10-26T13:10:15;95143.31;;;24.61;30.92
10946;BME280;5525;42.648;23.368;2022-10-26T13:12:46;95142.66;;;24.29;31.63
10946;BME280;5525;42.648;23.368;2022-10-26T13:15:23;95146.66;;;24.04;31.45
10946;BME280;5525;42.648;23.368;2022-10-26T13:18:07;95122.28;;;23.57;32.17
10946;BME280;5525;42.648;23.368;2022-10-26T13:20:36;95125.81;;;23.40;32.13
10946;BME280;5525;42.648;23.368;2022-10-26T13:23:14;95143.56;;;23.39;31.90
10946;BME280;5525;42.648;23.368;2022-10-26T13:25:42;95132.50;;;23.28;31.60
10946;BME280;5525;42.648;23.368;2022-10-26T13:28:32;95135.25;;;23.32;31.12
10946;BME280;5525;42.648;23.368;2022-10-26T13:30:59;95140.00;;;23.38;31.33
10946;BME280;5525;42.648;23.368;2022-10-26T13:33:34;95141.16;;;23.30;31.30